there are no active watches, warnings or advisories


thunder radar more information blitzortung!


rain radar more information rain snow radar


visit our other weather sites:

Template documentation
and downloads

And another site


you find our weather info also at:

Weather Underground

Citizen Weather Observer Program (CWOP)



weather underground history page text

daily summary for october 19, 2017 units:  english    metric   both
« previous day
next day »
daily weekly monthly yearly custom
  current: high: low: average:
temperature: 64.7 °F 73.7 °F 43.3 °F 58.8 °F
dew point: 56.6 °F 56.6 °F 41.7 °F 49.1 °F
humidity: 75 % 97 % 48 % 73 %
wind speed: 0.0 mph 2.0 mph 0.0 mph 0.6 mph
wind gust: 0.0 mph 7.0 mph - -
wind:Calm - - SSE
pressure: 30.23 in 30.34 in 30.22 in -
precipitation: 0.00 in      
Historical Graphs
 
 
tabular data for october 19, 2017
time temperature dew point pressure wind wind speed wind gust humidity rainfall rate (hourly)
00:00 50.2 °F 47.4 °F 30.24 in Calm     90 % 0.00 in
00:05 50.1 °F 47.3 °F 30.24 in Calm     90 % 0.00 in
00:10 50.1 °F 47.3 °F 30.24 in Calm     90 % 0.00 in
00:20 49.9 °F 47.1 °F 30.24 in Calm     90 % 0.00 in
00:25 49.9 °F 47.4 °F 30.24 in Calm     91 % 0.00 in
00:30 49.8 °F 47.3 °F 30.23 in Calm     91 % 0.00 in
00:35 49.8 °F 47.3 °F 30.23 in Calm     91 % 0.00 in
00:40 49.8 °F 47.3 °F 30.23 in Calm     91 % 0.00 in
00:50 49.8 °F 47.3 °F 30.23 in Calm     91 % 0.00 in
00:55 49.8 °F 47.3 °F 30.23 in Calm     91 % 0.00 in
01:05 49.7 °F 47.2 °F 30.23 in Calm     91 % 0.00 in
01:10 49.7 °F 47.2 °F 30.23 in Calm     91 % 0.00 in
01:15 49.6 °F 47.4 °F 30.23 in Calm     92 % 0.00 in
01:20 49.6 °F 47.4 °F 30.24 in Calm   1.0 mph 92 % 0.00 in
01:25 49.6 °F 47.4 °F 30.24 in Calm     92 % 0.00 in
01:30 49.6 °F 47.4 °F 30.24 in Calm     92 % 0.00 in
01:35 49.5 °F 47.3 °F 30.24 in Calm   1.0 mph 92 % 0.00 in
01:40 49.5 °F 47.3 °F 30.24 in Calm     92 % 0.00 in
01:45 49.4 °F 46.9 °F 30.24 in Calm   1.0 mph 91 % 0.00 in
01:50 49.3 °F 46.8 °F 30.24 in Calm     91 % 0.00 in
02:00 49.1 °F 46.6 °F 30.24 in Calm     91 % 0.00 in
02:05 49.0 °F 46.5 °F 30.24 in Calm     91 % 0.00 in
02:10 48.9 °F 46.4 °F 30.24 in Calm   1.0 mph 91 % 0.00 in
02:20 48.7 °F 46.2 °F 30.24 in Calm     91 % 0.00 in
02:25 48.7 °F 46.1 °F 30.24 in Calm   1.0 mph 91 % 0.00 in
02:30 48.6 °F 46.1 °F 30.24 in Calm     91 % 0.00 in
02:35 48.5 °F 46.3 °F 30.25 in Calm     92 % 0.00 in
02:40 48.4 °F 46.2 °F 30.25 in Calm     92 % 0.00 in
02:50 48.1 °F 45.9 °F 30.25 in Calm   1.0 mph 92 % 0.00 in
03:00 47.9 °F 45.7 °F 30.25 in Calm     92 % 0.00 in
03:05 47.8 °F 45.6 °F 30.25 in Calm     92 % 0.00 in
03:10 47.7 °F 45.5 °F 30.25 in Calm     92 % 0.00 in
03:20 47.5 °F 45.3 °F 30.24 in Calm     92 % 0.00 in
03:25 47.4 °F 45.2 °F 30.25 in Calm     92 % 0.00 in
03:30 47.3 °F 45.1 °F 30.25 in Calm     92 % 0.00 in
03:40 47.1 °F 44.9 °F 30.24 in Calm     92 % 0.00 in
03:50 46.9 °F 44.7 °F 30.24 in Calm     92 % 0.00 in
03:55 46.8 °F 44.6 °F 30.24 in Calm     92 % 0.00 in
04:00 46.7 °F 44.5 °F 30.24 in Calm     92 % 0.00 in
04:05 46.5 °F 44.3 °F 30.24 in Calm     92 % 0.00 in
04:10 46.4 °F 44.2 °F 30.24 in Calm     92 % 0.00 in
04:20 46.2 °F 44.0 °F 30.25 in Calm     92 % 0.00 in
04:25 46.1 °F 43.9 °F 30.25 in Calm     92 % 0.00 in
04:30 46.0 °F 43.8 °F 30.25 in Calm     92 % 0.00 in
04:35 45.9 °F 43.7 °F 30.25 in Calm   1.0 mph 92 % 0.00 in
04:40 45.8 °F 43.6 °F 30.25 in Calm     92 % 0.00 in
04:50 45.6 °F 43.4 °F 30.26 in Calm     92 % 0.00 in
04:55 45.5 °F 43.6 °F 30.26 in Calm     93 % 0.00 in
05:00 45.4 °F 43.5 °F 30.26 in Calm     93 % 0.00 in
05:05 45.4 °F 43.5 °F 30.26 in Calm     93 % 0.00 in
05:10 45.2 °F 43.3 °F 30.27 in Calm     93 % 0.00 in
05:15 45.1 °F 43.2 °F 30.27 in Calm   1.0 mph 93 % 0.00 in
05:20 45.0 °F 43.1 °F 30.27 in Calm     93 % 0.00 in
05:25 44.9 °F 43.0 °F 30.27 in Calm     93 % 0.00 in
05:30 44.8 °F 42.9 °F 30.28 in Calm     93 % 0.00 in
05:35 44.7 °F 42.8 °F 30.28 in Calm     93 % 0.00 in
05:40 44.5 °F 42.7 °F 30.28 in Calm   1.0 mph 93 % 0.00 in
05:45 44.5 °F 42.6 °F 30.28 in Calm     93 % 0.00 in
05:50 44.4 °F 42.5 °F 30.28 in Calm     93 % 0.00 in
06:00 44.2 °F 42.3 °F 30.28 in Calm     93 % 0.00 in
06:10 44.1 °F 42.2 °F 30.29 in Calm     93 % 0.00 in
06:20 43.9 °F 42.2 °F 30.30 in Calm     94 % 0.00 in
06:25 43.8 °F 41.9 °F 30.30 in Calm     93 % 0.00 in
06:30 43.7 °F 42.1 °F 30.30 in Calm     94 % 0.00 in
06:35 43.6 °F 42.0 °F 30.30 in Calm     94 % 0.00 in
06:40 43.6 °F 42.0 °F 30.30 in Calm     94 % 0.00 in
06:45 43.5 °F 41.9 °F 30.30 in Calm     94 % 0.00 in
06:50 43.5 °F 41.9 °F 30.30 in Calm     94 % 0.00 in
07:00 43.4 °F 41.8 °F 30.30 in Calm     94 % 0.00 in
07:05 43.4 °F 41.8 °F 30.30 in Calm     94 % 0.00 in
07:15 43.4 °F 41.8 °F 30.30 in Calm     94 % 0.00 in
07:20 43.4 °F 41.8 °F 30.30 in Calm     94 % 0.00 in
07:25 43.3 °F 41.7 °F 30.30 in Calm     94 % 0.00 in
07:30 43.3 °F 41.7 °F 30.31 in Calm     94 % 0.00 in
07:35 43.3 °F 41.7 °F 30.30 in Calm     94 % 0.00 in
07:40 43.3 °F 41.7 °F 30.30 in Calm     94 % 0.00 in
07:45 43.3 °F 41.7 °F 30.30 in Calm     94 % 0.00 in
07:55 43.4 °F 42.1 °F 30.31 in Calm     95 % 0.00 in
08:00 43.5 °F 42.1 °F 30.31 in Calm     95 % 0.00 in
08:10 43.8 °F 42.4 °F 30.31 in Calm     95 % 0.00 in
08:15 43.9 °F 42.6 °F 30.31 in Calm     95 % 0.00 in
08:20 44.2 °F 42.8 °F 30.31 in Calm     95 % 0.00 in
08:25 44.5 °F 43.4 °F 30.31 in Calm     96 % 0.00 in
08:30 44.8 °F 43.8 °F 30.32 in Calm   2.0 mph 96 % 0.00 in
08:40 46.9 °F 46.1 °F 30.32 in Calm   1.0 mph 97 % 0.00 in
08:50 49.9 °F 48.8 °F 30.32 in Calm     96 % 0.00 in
08:55 51.4 °F 49.7 °F 30.32 in Calm     94 % 0.00 in
09:05 54.5 °F 50.4 °F 30.33 in SSE 1.0 mph 3.0 mph 86 % 0.00 in
09:10 54.9 °F 50.5 °F 30.33 in Calm   3.0 mph 85 % 0.00 in
09:20 55.3 °F 51.2 °F 30.33 in SSE 1.0 mph 3.0 mph 86 % 0.00 in
09:25 55.6 °F 51.1 °F 30.33 in Calm   2.0 mph 85 % 0.00 in
09:30 56.1 °F 51.0 °F 30.33 in South 1.0 mph 4.0 mph 83 % 0.00 in
09:35 57.1 °F 51.0 °F 30.33 in South 1.0 mph 3.0 mph 80 % 0.00 in
09:45 58.0 °F 50.9 °F 30.33 in SW 1.0 mph 4.0 mph 77 % 0.00 in
09:50 58.4 °F 51.2 °F 30.33 in Calm   2.0 mph 77 % 0.00 in
10:00 60.9 °F 51.9 °F 30.33 in WSW 1.0 mph 3.0 mph 72 % 0.00 in
10:05 61.9 °F 51.6 °F 30.33 in WSW 2.0 mph 4.0 mph 69 % 0.00 in
10:10 62.4 °F 51.7 °F 30.33 in WSW 2.0 mph 4.0 mph 68 % 0.00 in
10:15 63.2 °F 52.0 °F 30.33 in WSW 2.0 mph 4.0 mph 67 % 0.00 in
10:20 63.5 °F 51.9 °F 30.33 in Calm   1.0 mph 66 % 0.00 in
10:25 63.8 °F 52.3 °F 30.33 in SW 2.0 mph 5.0 mph 66 % 0.00 in
10:30 64.7 °F 51.8 °F 30.34 in SW 2.0 mph 7.0 mph 63 % 0.00 in
10:40 65.9 °F 52.1 °F 30.34 in SW 2.0 mph 5.0 mph 61 % 0.00 in
10:45 65.7 °F 51.8 °F 30.33 in WSW 2.0 mph 4.0 mph 61 % 0.00 in
10:50 66.2 °F 52.8 °F 30.33 in SW 1.0 mph 6.0 mph 62 % 0.00 in
10:55 66.5 °F 52.6 °F 30.33 in WSW 1.0 mph 3.0 mph 61 % 0.00 in
11:00 66.1 °F 52.3 °F 30.33 in SW 1.0 mph 4.0 mph 61 % 0.00 in
11:05 66.8 °F 52.9 °F 30.33 in SW 1.0 mph 3.0 mph 61 % 0.00 in
11:10 67.0 °F 52.2 °F 30.33 in South 2.0 mph 3.0 mph 59 % 0.00 in
11:15 67.8 °F 53.0 °F 30.33 in South 1.0 mph 4.0 mph 59 % 0.00 in
11:20 68.0 °F 52.2 °F 30.33 in SW 1.0 mph 3.0 mph 57 % 0.00 in
11:30 68.6 °F 53.2 °F 30.33 in SSW 1.0 mph 3.0 mph 58 % 0.00 in
11:35 69.3 °F 53.4 °F 30.33 in SE 1.0 mph 5.0 mph 57 % 0.00 in
11:40 69.7 °F 53.3 °F 30.33 in ESE 1.0 mph 2.0 mph 56 % 0.00 in
11:45 69.7 °F 53.3 °F 30.32 in Calm   2.0 mph 56 % 0.00 in
11:50 70.1 °F 53.2 °F 30.32 in SSW 2.0 mph 4.0 mph 55 % 0.00 in
11:55 70.3 °F 52.8 °F 30.32 in SW 1.0 mph 3.0 mph 54 % 0.00 in
12:00 71.0 °F 54.0 °F 30.32 in South 1.0 mph 3.0 mph 55 % 0.00 in
12:05 70.7 °F 53.2 °F 30.31 in SE 1.0 mph 4.0 mph 54 % 0.00 in
12:10 70.5 °F 53.0 °F 30.31 in SW 1.0 mph 3.0 mph 54 % 0.00 in
12:15 70.9 °F 53.4 °F 30.31 in WSW 2.0 mph 3.0 mph 54 % 0.00 in
12:20 70.5 °F 52.5 °F 30.31 in SW 2.0 mph 5.0 mph 53 % 0.00 in
12:30 71.1 °F 53.1 °F 30.30 in WSW 1.0 mph 3.0 mph 53 % 0.00 in
12:35 70.7 °F 52.2 °F 30.30 in South 2.0 mph 4.0 mph 52 % 0.00 in
12:40 70.8 °F 52.3 °F 30.30 in SE 1.0 mph 4.0 mph 52 % 0.00 in
12:45 70.1 °F 51.1 °F 30.29 in SSE 1.0 mph 3.0 mph 51 % 0.00 in
12:50 70.3 °F 52.4 °F 30.29 in East 1.0 mph 3.0 mph 53 % 0.00 in
13:00 70.7 °F 53.3 °F 30.29 in East 1.0 mph 4.0 mph 54 % 0.00 in
13:05 71.1 °F 52.5 °F 30.28 in SW 2.0 mph 4.0 mph 52 % 0.00 in
13:10 71.1 °F 52.1 °F 30.28 in SSE 2.0 mph 4.0 mph 51 % 0.00 in
13:15 70.8 °F 51.8 °F 30.28 in SE 1.0 mph 4.0 mph 51 % 0.00 in
13:20 71.0 °F 51.9 °F 30.28 in ESE 1.0 mph 4.0 mph 51 % 0.00 in
13:25 71.2 °F 52.2 °F 30.27 in ENE 2.0 mph 3.0 mph 51 % 0.00 in
13:30 71.2 °F 51.6 °F 30.27 in ENE 2.0 mph 4.0 mph 50 % 0.00 in
13:35 71.0 °F 51.4 °F 30.27 in ENE 2.0 mph 4.0 mph 50 % 0.00 in
13:40 71.2 °F 52.1 °F 30.27 in Calm   3.0 mph 51 % 0.00 in
13:45 71.5 °F 52.4 °F 30.26 in North 1.0 mph 4.0 mph 51 % 0.00 in
13:50 71.5 °F 51.9 °F 30.26 in SE 2.0 mph 3.0 mph 50 % 0.00 in
14:00 71.6 °F 52.5 °F 30.26 in ESE 1.0 mph 5.0 mph 51 % 0.00 in
14:05 71.6 °F 52.5 °F 30.25 in East 1.0 mph 3.0 mph 51 % 0.00 in
14:10 71.6 °F 52.5 °F 30.25 in East 1.0 mph 3.0 mph 51 % 0.00 in
14:15 72.0 °F 53.4 °F 30.25 in East 2.0 mph 5.0 mph 52 % 0.00 in
14:20 72.0 °F 52.4 °F 30.25 in Calm   2.0 mph 50 % 0.00 in
14:25 72.4 °F 53.3 °F 30.25 in WSW 1.0 mph 5.0 mph 51 % 0.00 in
14:30 72.2 °F 52.6 °F 30.25 in SSE 1.0 mph 3.0 mph 50 % 0.00 in
14:35 72.2 °F 53.0 °F 30.25 in SSE 2.0 mph 3.0 mph 51 % 0.00 in
14:40 72.4 °F 53.7 °F 30.25 in WNW 1.0 mph 3.0 mph 52 % 0.00 in
14:50 73.0 °F 52.1 °F 30.24 in SE 2.0 mph 6.0 mph 48 % 0.00 in
14:55 72.9 °F 52.1 °F 30.24 in ESE 1.0 mph 4.0 mph 48 % 0.00 in
15:00 72.9 °F 52.0 °F 30.24 in SE 1.0 mph 3.0 mph 48 % 0.00 in
15:05 72.8 °F 52.5 °F 30.24 in SSE 1.0 mph 2.0 mph 49 % 0.00 in
15:10 72.9 °F 52.6 °F 30.24 in South 1.0 mph 4.0 mph 49 % 0.00 in
15:15 72.9 °F 52.6 °F 30.24 in SSE 2.0 mph 3.0 mph 49 % 0.00 in
15:20 73.0 °F 52.7 °F 30.24 in ESE 1.0 mph 2.0 mph 49 % 0.00 in
15:25 73.1 °F 52.8 °F 30.24 in ESE 2.0 mph 4.0 mph 49 % 0.00 in
15:30 73.1 °F 52.2 °F 30.23 in ESE 1.0 mph 3.0 mph 48 % 0.00 in
15:35 73.2 °F 52.9 °F 30.23 in SE 1.0 mph 4.0 mph 49 % 0.00 in
15:40 73.4 °F 53.1 °F 30.23 in SSW 2.0 mph 3.0 mph 49 % 0.00 in
15:45 73.4 °F 53.1 °F 30.23 in ENE 1.0 mph 5.0 mph 49 % 0.00 in
15:50 73.7 °F 53.4 °F 30.23 in East 1.0 mph 3.0 mph 49 % 0.00 in
15:55 73.7 °F 52.8 °F 30.23 in ESE 1.0 mph 3.0 mph 48 % 0.00 in
16:00 73.5 °F 53.2 °F 30.23 in Calm   2.0 mph 49 % 0.00 in
16:05 73.6 °F 53.3 °F 30.23 in East 1.0 mph 4.0 mph 49 % 0.00 in
16:10 73.6 °F 52.7 °F 30.23 in ENE 1.0 mph 4.0 mph 48 % 0.00 in
16:15 73.1 °F 52.8 °F 30.23 in NNE 1.0 mph 4.0 mph 49 % 0.00 in
16:20 73.1 °F 52.3 °F 30.23 in ENE 2.0 mph 7.0 mph 48 % 0.00 in
16:25 73.2 °F 52.3 °F 30.23 in East 1.0 mph 4.0 mph 48 % 0.00 in
16:30 73.2 °F 52.9 °F 30.23 in ESE 1.0 mph 3.0 mph 49 % 0.00 in
16:40 72.9 °F 52.6 °F 30.23 in East 1.0 mph 3.0 mph 49 % 0.00 in
16:45 72.8 °F 53.1 °F 30.23 in East 2.0 mph 4.0 mph 50 % 0.00 in
16:50 72.8 °F 53.1 °F 30.22 in Calm   2.0 mph 50 % 0.00 in
17:00 72.6 °F 53.5 °F 30.22 in East 2.0 mph 3.0 mph 51 % 0.00 in
17:05 72.5 °F 53.9 °F 30.22 in ENE 1.0 mph 3.0 mph 52 % 0.00 in
17:10 72.4 °F 54.3 °F 30.22 in ENE 1.0 mph 3.0 mph 53 % 0.00 in
17:15 72.3 °F 53.7 °F 30.23 in East 1.0 mph 3.0 mph 52 % 0.00 in
17:20 72.0 °F 54.5 °F 30.22 in East 1.0 mph 2.0 mph 54 % 0.00 in
17:25 71.7 °F 55.2 °F 30.22 in ENE 1.0 mph 3.0 mph 56 % 0.00 in
17:30 71.3 °F 55.2 °F 30.22 in East 1.0 mph 3.0 mph 57 % 0.00 in
17:35 70.8 °F 55.3 °F 30.22 in East 1.0 mph 4.0 mph 58 % 0.00 in
17:40 70.3 °F 55.3 °F 30.22 in East 1.0 mph 2.0 mph 59 % 0.00 in
17:45 69.8 °F 55.3 °F 30.22 in Calm     60 % 0.00 in
17:50 69.3 °F 55.7 °F 30.22 in Calm     62 % 0.00 in
17:55 68.7 °F 55.6 °F 30.22 in Calm     63 % 0.00 in
18:00 68.2 °F 56.0 °F 30.23 in Calm     65 % 0.00 in
18:05 67.6 °F 55.8 °F 30.23 in Calm   1.0 mph 66 % 0.00 in
18:10 67.0 °F 56.1 °F 30.23 in Calm   1.0 mph 68 % 0.00 in
18:15 66.4 °F 56.3 °F 30.23 in Calm     70 % 0.00 in
18:20 65.8 °F 56.6 °F 30.23 in Calm   1.0 mph 72 % 0.00 in
18:25 65.3 °F 56.4 °F 30.23 in Calm   1.0 mph 73 % 0.00 in
18:30 64.7 °F 56.6 °F 30.23 in Calm     75 % 0.00 in
Freds Corinth, MS Weather
compliments of Weather Underground - 2.5 mb

script developed by  Jim McMurry - jmcmurry@mwt.net adapted for the template by  Wim van der Kuil - Leuven-Template.eu

equipment we use:

weather-station
Davis VP2 weatherstation

weather-program
consoleWD

weather-server
RaspberryPI

Davis VP2 weatherstation

consoleWD

RaspberryPI